• Join FlightAware (Why Join?)
  • Login
  • US Flag 
06:14AM EST


 

Airport Tracker/Info


-or-


 

Live Flight TrackerFlight Track Log ✈ BMBR610 ✈ 28-Jan-2014 ✈ YPJT / JAD - YPJT / JAD

Flight Track Log - Related Links

Times and Time Zones

All times are in EST time to prevent confusion due to time zone crossing. See the BMBR610 flight status page for this flight to view local times or setup timezone preferences in your user account.

Time Position Orientation Groundspeed Altitude Reporting Facility
EST Latitude Longitude Course Direction KTS MPH feet Rate Location/Type
02:11AM -32.1027 115.8867 334° Northwest 1,500  Level Aus ATC (Calculated)
02:12AM -31.8224 115.7294 353° North 166 191 1,100 -360 Descending Aus ATC (RADAR)
02:13AM -31.8034 115.7266 353° North 162 186 1,100  Level Aus ATC (RADAR)
02:13AM -31.7613 115.7169 349° North 165 190 1,100 -120 Level Aus ATC (RADAR)
02:14AM -31.7384 115.7100 346° North 168 193 1,000 -120 Descending Aus ATC (RADAR)
02:14AM -31.7191 115.7045 346° North 171 197 1,000  Level Aus ATC (RADAR)
02:15AM -31.6927 115.6940 341° North 171 197 1,000 -120 Level Aus ATC (RADAR)
02:16AM -31.6558 115.6760 337° Northwest 169 194 900 -180 Descending Aus ATC (RADAR)
02:16AM -31.6272 115.6733 355° North 173 199 800 -180 Descending Aus ATC (RADAR)
02:17AM -31.5820 115.6730 360° North 179 206 700 -120 Descending Aus ATC (RADAR)
02:17AM -31.5725 115.6640 321° Northwest 174 200 700 -120 Level Aus ATC (RADAR)
02:18AM -31.5865 115.6488 223° Southwest 148 170 600 -360 Descending Aus ATC (RADAR)
02:19AM -31.5870 115.6598 93° East 136 157 200 -180 Descending Aus ATC (RADAR)
02:19AM -31.5704 115.6633 10° North 147 169 400 240 Climbing Aus ATC (RADAR)
02:20AM -31.5687 115.6383 275° West 131 151 500 120 Climbing Aus ATC (RADAR)
02:21AM -31.5943 115.6571 148° Southeast 137 158 600 60 Climbing Aus ATC (RADAR)
02:22AM -31.5955 115.6869 93° East 148 170 600 180 Level Aus ATC (RADAR)
02:22AM -31.6026 115.7238 103° East 142 163 900 240 Climbing Aus ATC (RADAR)
02:23AM -31.6071 115.7443 104° East 146 168 900 300 Level Aus ATC (RADAR)
02:23AM -31.6123 115.7727 102° East 140 161 1,200  Climbing Aus ATC (RADAR)
02:24AM -31.6202 115.8254 100° East 136 157 1,000 -180 Descending Aus ATC (RADAR)
02:25AM -31.6230 115.8439 100° East 136 157 1,000 -240 Level Aus ATC (RADAR)
02:26AM -31.6266 115.8732 98° East 131 151 800 -180 Descending Aus ATC (RADAR)
02:26AM -31.6309 115.8989 101° East 128 147 800  Level Aus ATC (RADAR)
02:27AM -31.6334 115.9203 98° East 127 146 800  Level Aus ATC (RADAR)
02:27AM -31.6382 115.9572 99° East 129 148 800  Level Aus ATC (RADAR)
02:28AM -31.6407 115.9802 97° East 136 157 800 -240 Level Aus ATC (RADAR)
02:28AM -31.6435 116.0032 98° East 140 161 600 -420 Descending Aus ATC (RADAR)
02:30AM -31.6789 116.0155 164° South 67 77 100 -180 Descending Aus ATC (RADAR)
02:32AM -31.6801 116.0200 108° East 10 12 100  Level Aus ATC (RADAR)
02:32AM -31.6803 116.0198 216° Southwest 10 12 100  Level Aus ATC (RADAR)
02:43AM -31.6694 116.0145 216° Southwest 87 100 100  Level Aus ATC (RADAR)
02:44AM -31.6507 116.0054 337° Northwest 124 143 300 360 Climbing Aus ATC (RADAR)
02:45AM -31.6404 115.9544 283° West 147 169 700 300 Climbing Aus ATC (RADAR)
02:45AM -31.6386 115.9426 280° West 148 170 700 120 Level Aus ATC (RADAR)
02:46AM -31.6345 115.9188 282° West 148 170 800 240 Climbing Aus ATC (RADAR)
02:46AM -31.6296 115.8870 280° West 148 170 1,000 240 Climbing Aus ATC (RADAR)
02:47AM -31.6248 115.8671 286° West 151 174 1,100 60 Climbing Aus ATC (RADAR)
02:47AM -31.6159 115.8335 287° West 158 182 1,100 120 Level Aus ATC (RADAR)
02:48AM -31.6011 115.7931 293° West 160 184 1,300 120 Climbing Aus ATC (RADAR)
02:49AM -31.5917 115.7631 290° West 164 189 1,300 -180 Level Aus ATC (RADAR)
02:50AM -31.5746 115.7189 294° West 176 203 1,100 -420 Descending Aus ATC (RADAR)
02:50AM -31.5663 115.6970 294° West 170 196 800 -300 Descending Aus ATC (RADAR)
02:51AM -31.5632 115.6670 277° West 154 177 800 -180 Level Aus ATC (RADAR)
02:52AM -31.5900 115.6466 213° Southwest 137 158 600 -120 Descending Aus ATC (RADAR)
02:52AM -31.6037 115.6776 117° Southeast 111 128 700 120 Climbing Aus ATC (RADAR)
02:53AM -31.5608 115.6686 350° North 158 182 800 60 Climbing Aus ATC (RADAR)
02:53AM -31.5685 115.6502 244° Southwest 147 169 800  Level Aus ATC (RADAR)
02:54AM -31.5889 115.6551 169° South 131 151 800  Level Aus ATC (RADAR)
02:55AM -31.5614 115.6643 16° North 160 184 900 -120 Climbing Aus ATC (RADAR)
02:55AM -31.5698 115.6456 242° Southwest 150 173 700 -240 Descending Aus ATC (RADAR)
02:56AM -31.5916 115.6557 158° South 143 165 700  Level Aus ATC (RADAR)
02:57AM -31.5835 115.6887 74° East 147 169 700 -360 Level Aus ATC (RADAR)
02:57AM -31.5874 115.6696 257° West 148 170 300 -180 Descending Aus ATC (RADAR)
02:58AM -31.5657 115.6552 330° Northwest 146 168 500 60 Climbing Aus ATC (RADAR)
02:58AM -31.5743 115.6339 245° Southwest 138 159  Descending Aus ATC (RADAR)
02:59AM -31.5962 115.6446 157° South 143 165 300 Level Aus ATC (RADAR)
03:00AM -31.6329 115.6643 155° Southeast 121 139 600 420 Climbing Aus ATC (RADAR)
03:01AM -31.6455 115.6699 160° South 118 136 700 360 Climbing Aus ATC (RADAR)
03:01AM -31.6642 115.6765 163° South 119 137 1,000 300 Climbing Aus ATC (RADAR)
03:02AM -31.6892 115.6860 162° South 126 145 1,100 60 Climbing Aus ATC (RADAR)
03:03AM -31.7098 115.6957 158° South 136 157 1,100 -120 Level Aus ATC (RADAR)
03:03AM -31.7408 115.7063 164° South 141 162 1,000 -120 Descending Aus ATC (RADAR)
03:04AM -31.7567 115.7101 169° South 139 160 1,000  Level Aus ATC (RADAR)
03:05AM -31.7952 115.7168 172° South 140 161 1,000 60 Level Aus ATC (RADAR)
03:05AM -31.8204 115.7206 173° South 138 159 1,100 60 Climbing Aus ATC (RADAR)
03:06AM -31.8329 115.7228 171° South 137 158 1,100 -120 Level Aus ATC (RADAR)
03:06AM -31.8522 115.7264 171° South 141 162 1,000  Descending Aus ATC (RADAR)
03:07AM -31.8848 115.7280 178° South 139 160 1,100 120 Climbing Aus ATC (RADAR)
03:08AM -31.9068 115.7279 180° South 136 157 1,200 120 Climbing Aus ATC (RADAR)
03:08AM -31.9361 115.7255 184° South 140 161 1,300 60 Climbing Aus ATC (RADAR)
03:09AM -31.9492 115.7242 185° South 142 163 1,300  Level Aus ATC (RADAR)
03:09AM -31.9693 115.7218 186° South 145 167 1,300  Level Aus ATC (RADAR)
03:10AM -32.0046 115.7180 185° South 141 162 1,300  Level Aus ATC (RADAR)
03:11AM -32.0252 115.7169 183° South 147 169 1,300 60 Level Aus ATC (RADAR)
03:11AM -32.0483 115.7175 179° South 143 165 1,400 60 Climbing Aus ATC (RADAR)
03:12AM -32.0733 115.7250 166° South 140 161 1,400 -120 Level Aus ATC (RADAR)
03:12AM -32.0912 115.7386 147° Southeast 132 152 1,300 60 Descending Aus ATC (RADAR)
03:13AM -32.0950 115.7715 98° East 132 152 1,500 120 Climbing Aus ATC (RADAR)
03:14AM -32.0955 115.7901 92° East 133 153 1,500  Level Aus ATC (RADAR)
03:14AM -32.0958 115.8146 91° East 125 144 1,500 -660 Level Aus ATC (RADAR)
03:16AM -32.0968 115.8651 91° East 101 116 300 -120 Descending Aus ATC (RADAR)
03:16AM -32.1005 115.8747 115° Southeast 79 91 -60 Descending Aus ATC (RADAR)
03:21AM -32.0952 115.8809 360° North 100 60 Climbing Aus ATC (Calculated)
03:22AM -32.0952 115.8809 147° Southeast 400 60 Climbing Aus ATC (Calculated)
03:26AM -32.0989 115.8838 304° West 400 -60 Level Aus ATC (Calculated)
03:28AM -32.0982 115.8825 304° West 100 -180 Descending Aus ATC (Calculated)